createdAt,value
2017-10-16T00:00:01.575Z,83.10
2017-10-16T00:01:04.284Z,83.30
2017-10-16T00:02:06.828Z,83.20
2017-10-16T00:03:09.388Z,82.70
2017-10-16T00:04:11.928Z,83.90
2017-10-16T00:05:15.225Z,83.20
2017-10-16T00:06:18.541Z,83.10
2017-10-16T00:07:21.077Z,83.10
2017-10-16T00:08:23.646Z,82.60
2017-10-16T00:09:26.191Z,82.40
2017-10-16T00:10:29.478Z,81.90
2017-10-16T00:11:32.775Z,82.00
2017-10-16T00:12:35.348Z,82.00
2017-10-16T00:13:37.873Z,82.00
2017-10-16T00:14:40.396Z,82.20
2017-10-16T00:15:42.930Z,82.20
2017-10-16T00:16:45.466Z,82.20
2017-10-16T00:17:48.019Z,82.20
2017-10-16T00:18:50.565Z,82.10
2017-10-16T00:19:53.111Z,82.30
2017-10-16T00:20:55.645Z,82.40
2017-10-16T00:21:58.166Z,82.40
2017-10-16T00:23:00.750Z,82.20
2017-10-16T00:24:03.290Z,82.00
2017-10-16T00:25:05.827Z,81.80
2017-10-16T00:26:09.121Z,82.00
2017-10-16T00:27:11.660Z,82.00
2017-10-16T00:28:14.226Z,82.10
2017-10-16T00:29:16.751Z,81.40
2017-10-16T00:30:19.326Z,81.10
2017-10-16T00:31:21.841Z,81.30
2017-10-16T00:32:25.129Z,81.30
2017-10-16T00:33:28.413Z,81.40
2017-10-16T00:34:31.732Z,81.50
2017-10-16T00:35:34.301Z,81.50
2017-10-16T00:36:36.821Z,80.90
2017-10-16T00:37:40.113Z,80.80
2017-10-16T00:38:43.394Z,80.60
2017-10-16T00:39:45.953Z,80.60
2017-10-16T00:40:49.294Z,80.80
2017-10-16T00:41:51.845Z,80.70
2017-10-16T00:42:54.362Z,80.70
2017-10-16T00:43:57.661Z,81.00
2017-10-16T00:45:00.211Z,81.00
2017-10-16T00:46:03.553Z,81.20
2017-10-16T00:47:06.334Z,81.20
2017-10-16T00:48:08.860Z,81.60
2017-10-16T00:49:11.428Z,81.70
2017-10-16T00:50:13.957Z,81.70
2017-10-16T00:51:16.499Z,81.60
2017-10-16T00:52:19.020Z,81.60
2017-10-16T00:53:22.302Z,81.40
2017-10-16T00:54:24.855Z,81.40
2017-10-16T00:55:28.207Z,81.50
2017-10-16T00:56:30.753Z,81.50
2017-10-16T00:57:33.277Z,81.70
2017-10-16T00:58:36.594Z,81.50
2017-10-16T00:59:39.113Z,81.50
2017-10-16T01:00:41.669Z,81.60
2017-10-16T01:01:44.213Z,81.70
2017-10-16T01:02:46.735Z,81.50
2017-10-16T01:03:49.301Z,81.70
2017-10-16T01:04:51.834Z,82.00
2017-10-16T01:05:54.360Z,82.30
2017-10-16T01:06:56.874Z,82.10
2017-10-16T01:07:59.422Z,82.00
2017-10-16T01:09:01.997Z,82.50
2017-10-16T01:10:04.520Z,82.10
2017-10-16T01:11:07.082Z,82.10
2017-10-16T01:12:09.611Z,82.20
2017-10-16T01:13:12.901Z,81.80
2017-10-16T01:14:16.225Z,82.00
2017-10-16T01:15:18.750Z,81.90
2017-10-16T01:16:22.040Z,82.50
2017-10-16T01:17:25.358Z,82.60
2017-10-16T01:18:27.878Z,82.60
2017-10-16T01:19:31.213Z,84.80
2017-10-16T01:20:33.742Z,84.80
2017-10-16T01:21:37.034Z,87.10
2017-10-16T01:22:39.607Z,87.10
2017-10-16T01:23:42.129Z,86.10
2017-10-16T01:24:44.657Z,86.00
2017-10-16T01:25:47.192Z,86.80
2017-10-16T01:26:50.591Z,85.60
2017-10-16T01:27:53.142Z,85.20
2017-10-16T01:28:55.689Z,86.60
2017-10-16T01:29:58.219Z,86.10
2017-10-16T01:31:00.741Z,86.00
2017-10-16T01:32:03.323Z,85.40
2017-10-16T01:33:05.842Z,85.40
2017-10-16T01:34:08.369Z,85.30
2017-10-16T01:35:10.885Z,85.10
2017-10-16T01:36:13.411Z,85.00
2017-10-16T01:37:15.963Z,85.70
2017-10-16T01:38:18.521Z,84.70
2017-10-16T01:39:21.053Z,84.60
2017-10-16T01:40:24.353Z,84.40
2017-10-16T01:41:26.888Z,84.50
2017-10-16T01:42:29.453Z,84.30
2017-10-16T01:43:32.014Z,85.00
2017-10-16T01:44:34.540Z,84.90
2017-10-16T01:45:37.056Z,85.00
2017-10-16T01:46:39.594Z,85.20
2017-10-16T01:47:42.172Z,84.90
2017-10-16T01:48:44.690Z,85.10
2017-10-16T01:49:47.226Z,85.00
2017-10-16T01:50:50.538Z,85.30
2017-10-16T01:51:53.062Z,84.80
2017-10-16T01:52:55.629Z,85.00
2017-10-16T01:53:58.151Z,84.70
2017-10-16T01:55:00.692Z,84.40
2017-10-16T01:56:04.039Z,84.10
2017-10-16T01:57:06.578Z,84.10
2017-10-16T01:58:09.097Z,84.10
2017-10-16T01:59:12.418Z,84.10
2017-10-16T02:00:14.944Z,84.10
2017-10-16T02:01:17.507Z,83.90
2017-10-16T02:02:20.055Z,84.60
2017-10-16T02:03:22.580Z,84.20
2017-10-16T02:04:25.106Z,83.50
2017-10-16T02:05:27.621Z,84.10
2017-10-16T02:06:30.178Z,84.00
2017-10-16T02:07:32.699Z,83.70
2017-10-16T02:08:35.289Z,84.10
2017-10-16T02:09:37.831Z,84.40
2017-10-16T02:10:40.352Z,84.30
2017-10-16T02:11:42.890Z,84.20
2017-10-16T02:12:46.182Z,84.30
2017-10-16T02:13:48.750Z,84.30
2017-10-16T02:14:51.273Z,84.20
2017-10-16T02:15:53.810Z,84.10
2017-10-16T02:16:56.354Z,84.70
2017-10-16T02:17:58.876Z,83.40
2017-10-16T02:19:01.439Z,84.20
2017-10-16T02:20:03.995Z,83.70
2017-10-16T02:21:06.536Z,83.90
2017-10-16T02:22:09.074Z,84.80
2017-10-16T02:23:11.598Z,84.80
2017-10-16T02:24:14.168Z,84.20
2017-10-16T02:25:16.697Z,85.40
2017-10-16T02:26:19.262Z,85.30
2017-10-16T02:27:21.809Z,84.60
2017-10-16T02:28:24.385Z,85.30
2017-10-16T02:29:26.906Z,85.10
2017-10-16T02:30:29.443Z,85.10
2017-10-16T02:31:31.964Z,85.20
2017-10-16T02:32:35.258Z,85.30
2017-10-16T02:33:37.847Z,85.20
2017-10-16T02:34:40.382Z,85.10
2017-10-16T02:35:42.910Z,85.00
2017-10-16T02:36:45.447Z,84.80
2017-10-16T02:37:47.978Z,85.00
2017-10-16T02:38:50.561Z,84.60
2017-10-16T02:39:53.086Z,84.60
2017-10-16T02:40:55.622Z,84.70
2017-10-16T02:41:58.150Z,84.30
2017-10-16T02:43:00.684Z,84.00
2017-10-16T02:44:03.241Z,84.20
2017-10-16T02:45:05.797Z,84.10
2017-10-16T02:46:08.331Z,84.30
2017-10-16T02:47:10.874Z,84.00
2017-10-16T02:48:13.413Z,84.10
2017-10-16T02:49:16.093Z,84.00
2017-10-16T02:50:19.419Z,85.00
2017-10-16T02:51:22.015Z,85.00
2017-10-16T02:52:24.566Z,84.70
2017-10-16T02:53:27.131Z,85.10
2017-10-16T02:54:29.648Z,85.60
2017-10-16T02:55:32.938Z,85.70
2017-10-16T02:56:35.524Z,85.70
2017-10-16T02:57:38.078Z,85.70
2017-10-16T02:58:40.612Z,86.70
2017-10-16T02:59:43.147Z,86.50
2017-10-16T03:00:45.682Z,86.70
2017-10-16T03:01:48.256Z,86.70
2017-10-16T03:02:50.776Z,86.60
2017-10-16T03:03:53.309Z,86.60
2017-10-16T03:04:55.877Z,86.50
2017-10-16T03:05:58.406Z,86.60
2017-10-16T03:07:00.982Z,86.70
2017-10-16T03:08:03.513Z,87.10
2017-10-16T03:09:06.065Z,87.10
2017-10-16T03:10:08.596Z,87.30
2017-10-16T03:11:11.177Z,86.90
2017-10-16T03:12:13.738Z,87.00
2017-10-16T03:13:16.309Z,86.90
2017-10-16T03:14:18.835Z,86.80
2017-10-16T03:15:21.364Z,86.90
2017-10-16T03:16:23.966Z,87.00
2017-10-16T03:17:27.261Z,87.20
2017-10-16T03:18:29.832Z,87.20
2017-10-16T03:19:32.401Z,86.60
2017-10-16T03:20:34.938Z,86.40
2017-10-16T03:21:38.239Z,86.70
2017-10-16T03:22:40.773Z,86.70
2017-10-16T03:23:43.289Z,86.50
2017-10-16T03:24:45.846Z,86.50
2017-10-16T03:25:48.386Z,86.60
2017-10-16T03:26:51.689Z,86.90
2017-10-16T03:27:54.236Z,86.20
2017-10-16T03:28:57.581Z,86.00
2017-10-16T03:30:00.106Z,86.00
2017-10-16T03:31:02.636Z,85.70
2017-10-16T03:32:05.162Z,85.60
2017-10-16T03:33:07.695Z,85.80
2017-10-16T03:34:11.013Z,85.80
2017-10-16T03:35:13.541Z,85.80
2017-10-16T03:36:16.883Z,85.70
2017-10-16T03:37:19.517Z,85.70
2017-10-16T03:38:22.059Z,85.70
2017-10-16T03:39:25.450Z,86.40
2017-10-16T03:40:28.750Z,86.40
2017-10-16T03:41:31.273Z,86.40
2017-10-16T03:42:33.807Z,86.30
2017-10-16T03:43:36.350Z,86.20
2017-10-16T03:44:38.915Z,86.20
2017-10-16T03:45:41.434Z,86.10
2017-10-16T03:46:43.959Z,85.90
2017-10-16T03:47:46.481Z,85.70
2017-10-16T03:48:49.781Z,85.80
2017-10-16T03:49:52.365Z,85.70
2017-10-16T03:50:54.894Z,85.40
2017-10-16T03:51:58.244Z,85.30
2017-10-16T03:53:00.766Z,85.20
2017-10-16T03:54:03.295Z,85.00
2017-10-16T03:55:05.849Z,85.10
2017-10-16T03:56:08.414Z,85.10
2017-10-16T03:57:10.949Z,84.90
2017-10-16T03:58:13.486Z,84.90
2017-10-16T03:59:16.821Z,84.60
2017-10-16T04:00:19.344Z,84.50
2017-10-16T04:01:21.862Z,84.20
2017-10-16T04:02:24.388Z,84.20
2017-10-16T04:03:26.918Z,84.00
2017-10-16T04:04:29.486Z,83.90
2017-10-16T04:05:32.794Z,84.50
2017-10-16T04:06:36.118Z,84.40
2017-10-16T04:07:38.660Z,84.30
2017-10-16T04:08:41.186Z,84.60
2017-10-16T04:09:44.495Z,84.50
2017-10-16T04:10:47.021Z,84.50
2017-10-16T04:11:49.587Z,85.60
2017-10-16T04:12:52.131Z,85.30
2017-10-16T04:13:54.666Z,86.20
2017-10-16T04:14:57.189Z,86.40
2017-10-16T04:15:59.714Z,86.40
2017-10-16T04:17:02.285Z,86.10
2017-10-16T04:18:04.818Z,85.70
2017-10-16T04:19:08.124Z,85.50
2017-10-16T04:20:10.656Z,85.50
2017-10-16T04:21:13.964Z,85.20
2017-10-16T04:22:16.540Z,85.20
2017-10-16T04:23:19.107Z,85.20
2017-10-16T04:24:21.637Z,84.90
2017-10-16T04:25:24.932Z,85.10
2017-10-16T04:26:28.235Z,84.50
2017-10-16T04:27:30.808Z,84.60
2017-10-16T04:28:33.340Z,84.90
2017-10-16T04:29:36.636Z,84.80
2017-10-16T04:30:39.939Z,84.80
2017-10-16T04:31:42.466Z,84.70
2017-10-16T04:32:45.054Z,85.00
2017-10-16T04:33:48.353Z,85.50
2017-10-16T04:34:50.874Z,85.40
2017-10-16T04:35:53.415Z,85.50
2017-10-16T04:36:55.951Z,85.50
2017-10-16T04:37:58.520Z,85.30
2017-10-16T04:39:01.057Z,85.30
2017-10-16T04:40:04.353Z,85.10
2017-10-16T04:41:07.670Z,84.90
2017-10-16T04:42:10.199Z,84.90
2017-10-16T04:43:13.499Z,85.10
2017-10-16T04:44:16.027Z,85.10
2017-10-16T04:45:18.579Z,85.10
2017-10-16T04:46:21.137Z,85.00
2017-10-16T04:47:23.662Z,84.80
2017-10-16T04:48:26.194Z,84.40
2017-10-16T04:49:29.534Z,84.20
2017-10-16T04:50:32.062Z,84.30
2017-10-16T04:51:35.359Z,83.90
2017-10-16T04:52:37.878Z,83.90
2017-10-16T04:53:40.414Z,83.70
2017-10-16T04:54:43.011Z,83.60
2017-10-16T04:55:45.541Z,83.90
2017-10-16T04:56:49.153Z,84.10
2017-10-16T04:57:51.680Z,84.10
2017-10-16T04:58:54.210Z,84.00
2017-10-16T04:59:56.773Z,84.30
2017-10-16T05:01:00.070Z,84.40
2017-10-16T05:02:03.406Z,84.50
2017-10-16T05:03:05.969Z,84.50
2017-10-16T05:04:08.490Z,85.40
2017-10-16T05:05:11.782Z,86.40
2017-10-16T05:06:15.079Z,86.60
2017-10-16T05:07:17.698Z,86.60
2017-10-16T05:08:20.228Z,86.50
2017-10-16T05:09:22.922Z,86.60
2017-10-16T05:10:25.448Z,86.60
2017-10-16T05:11:27.982Z,87.00
2017-10-16T05:12:30.562Z,87.60
2017-10-16T05:13:33.849Z,87.80
2017-10-16T05:14:37.146Z,88.00
2017-10-16T05:15:39.674Z,88.00
2017-10-16T05:16:42.200Z,88.00
2017-10-16T05:17:44.764Z,87.80
2017-10-16T05:18:47.293Z,88.20
2017-10-16T05:19:50.586Z,87.30
2017-10-16T05:20:53.879Z,87.00
2017-10-16T05:21:56.405Z,87.00
2017-10-16T05:22:58.970Z,86.80
2017-10-16T05:24:01.510Z,86.60
2017-10-16T05:25:04.025Z,86.30
2017-10-16T05:26:07.336Z,86.60
2017-10-16T05:27:09.869Z,86.60
2017-10-16T05:28:13.186Z,86.90
2017-10-16T05:29:15.742Z,86.90
2017-10-16T05:30:18.281Z,86.90
2017-10-16T05:31:20.820Z,87.10
2017-10-16T05:32:23.350Z,87.00
2017-10-16T05:33:25.915Z,86.70
2017-10-16T05:34:28.437Z,86.60
2017-10-16T05:35:31.047Z,86.30
2017-10-16T05:36:33.573Z,86.10
2017-10-16T05:37:36.879Z,85.90
2017-10-16T05:38:40.182Z,85.50
2017-10-16T05:39:42.706Z,85.50
2017-10-16T05:40:45.263Z,85.20
2017-10-16T05:41:47.795Z,85.30
2017-10-16T05:42:50.312Z,85.40
2017-10-16T05:43:52.846Z,85.90
2017-10-16T05:44:55.375Z,86.30
2017-10-16T05:45:57.942Z,86.10
2017-10-16T05:47:00.467Z,86.00
2017-10-16T05:48:02.998Z,85.80
2017-10-16T05:49:05.573Z,85.70
2017-10-16T05:50:08.102Z,85.70
2017-10-16T05:52:19.546Z,85.40
2017-10-16T05:53:22.082Z,85.40
2017-10-16T05:54:24.641Z,85.30
2017-10-16T05:55:27.200Z,85.50
2017-10-16T05:56:29.723Z,85.50
2017-10-16T05:57:32.352Z,85.40
2017-10-16T05:58:34.870Z,85.40
2017-10-16T05:59:38.175Z,85.80
2017-10-16T06:00:40.741Z,85.70
2017-10-16T06:01:43.322Z,86.10
2017-10-16T06:02:45.840Z,86.70
2017-10-16T06:03:49.133Z,87.00
2017-10-16T06:04:52.425Z,87.20
2017-10-16T06:05:54.960Z,87.20
2017-10-16T06:06:58.306Z,86.60
2017-10-16T06:08:00.836Z,86.60
2017-10-16T06:09:04.122Z,86.30
2017-10-16T06:10:07.401Z,86.20
2017-10-16T06:11:10.692Z,86.10
2017-10-16T06:12:13.270Z,86.10
2017-10-16T06:13:15.794Z,86.00
2017-10-16T06:14:18.322Z,86.10
2017-10-16T06:15:20.846Z,86.20
2017-10-16T06:16:24.131Z,87.10
2017-10-16T06:17:27.465Z,86.70
2017-10-16T06:18:30.775Z,87.70
2017-10-16T06:19:33.348Z,87.70
2017-10-16T06:20:35.887Z,88.00
2017-10-16T06:21:38.413Z,88.10
2017-10-16T06:22:40.975Z,88.10
2017-10-16T06:23:43.505Z,88.10
2017-10-16T06:24:46.038Z,87.80
2017-10-16T06:25:48.569Z,87.70
2017-10-16T06:26:51.859Z,87.00
2017-10-16T06:27:54.417Z,86.90
2017-10-16T06:28:57.704Z,86.70
2017-10-16T06:30:00.229Z,86.70
2017-10-16T06:31:02.749Z,86.60
2017-10-16T06:32:05.342Z,86.70
2017-10-16T06:33:07.865Z,86.70
2017-10-16T06:34:11.151Z,87.20
2017-10-16T06:35:13.695Z,87.20
2017-10-16T06:36:16.251Z,87.30
2017-10-16T06:37:18.822Z,88.20
2017-10-16T06:38:21.348Z,87.40
2017-10-16T06:39:24.013Z,87.10
2017-10-16T06:40:26.546Z,87.00
2017-10-16T06:41:29.836Z,87.10
2017-10-16T06:42:32.369Z,87.10
2017-10-16T06:43:34.895Z,87.10
2017-10-16T06:44:37.467Z,87.00
2017-10-16T06:45:39.995Z,86.90
2017-10-16T06:46:43.338Z,87.10
2017-10-16T06:47:45.869Z,87.00
2017-10-16T06:48:48.403Z,87.10
2017-10-16T06:49:51.694Z,86.90
2017-10-16T06:50:54.993Z,86.90
2017-10-16T06:51:57.551Z,86.90
2017-10-16T06:53:00.081Z,86.80
2017-10-16T06:54:02.654Z,86.70
2017-10-16T06:55:05.195Z,86.60
2017-10-16T06:56:07.724Z,86.60
2017-10-16T06:57:10.246Z,86.90
2017-10-16T06:58:12.773Z,86.80
2017-10-16T06:59:15.334Z,86.50
2017-10-16T07:00:17.904Z,85.90
2017-10-16T07:01:20.426Z,86.10
2017-10-16T07:02:23.718Z,86.00
2017-10-16T07:03:26.997Z,86.10
2017-10-16T07:04:30.326Z,86.00
2017-10-16T07:05:32.863Z,86.00
2017-10-16T07:06:35.400Z,86.00
2017-10-16T07:07:37.921Z,86.00
2017-10-16T07:08:40.457Z,86.20
2017-10-16T07:09:43.021Z,86.30
2017-10-16T07:10:45.549Z,86.40
2017-10-16T07:11:48.072Z,86.60
2017-10-16T07:12:50.610Z,86.70
2017-10-16T07:13:53.950Z,86.50
2017-10-16T07:14:56.480Z,86.50
2017-10-16T07:15:59.086Z,86.30
2017-10-16T07:17:01.623Z,86.60
2017-10-16T07:18:04.158Z,86.80
2017-10-16T07:19:07.483Z,86.40
2017-10-16T07:20:10.015Z,86.40
2017-10-16T07:21:13.307Z,86.50
2017-10-16T07:22:15.824Z,86.50
2017-10-16T07:23:18.393Z,86.50
2017-10-16T07:24:20.937Z,86.90
2017-10-16T07:25:23.543Z,87.10
2017-10-16T07:26:26.110Z,87.20
2017-10-16T07:27:28.639Z,88.00
2017-10-16T07:28:31.167Z,87.80
2017-10-16T07:29:34.480Z,87.20
2017-10-16T07:30:37.000Z,87.20
2017-10-16T07:31:40.334Z,87.40
2017-10-16T07:32:42.884Z,87.40
2017-10-16T07:33:45.459Z,87.20
2017-10-16T07:34:47.985Z,86.60
2017-10-16T07:35:51.270Z,86.40
2017-10-16T07:36:54.569Z,86.30
2017-10-16T07:37:57.106Z,86.30
2017-10-16T07:38:59.676Z,85.90
2017-10-16T07:40:02.209Z,86.90
2017-10-16T07:41:04.742Z,85.70
2017-10-16T07:42:07.272Z,85.70
2017-10-16T07:43:09.827Z,85.80
2017-10-16T07:44:12.409Z,85.80
2017-10-16T07:45:14.939Z,85.70
2017-10-16T07:46:17.514Z,85.40
2017-10-16T07:47:20.043Z,85.40
2017-10-16T07:48:22.869Z,85.00
2017-10-16T07:49:25.398Z,85.00
2017-10-16T07:50:27.912Z,85.00
2017-10-16T07:51:30.479Z,84.40
2017-10-16T07:52:33.006Z,84.10
2017-10-16T07:53:35.551Z,84.30
2017-10-16T07:54:38.098Z,84.10
2017-10-16T07:55:41.385Z,84.00
2017-10-16T07:56:44.729Z,84.10
2017-10-16T07:57:47.264Z,84.10
2017-10-16T07:58:49.781Z,83.90
2017-10-16T07:59:53.102Z,83.70
2017-10-16T08:00:55.634Z,83.70
2017-10-16T08:01:58.954Z,83.40
2017-10-16T08:03:01.537Z,83.30
2017-10-16T08:04:04.070Z,83.50
2017-10-16T08:05:06.598Z,83.80
2017-10-16T08:06:09.122Z,83.50
2017-10-16T08:07:11.653Z,83.30
2017-10-16T08:08:14.986Z,83.70
2017-10-16T08:09:17.506Z,83.80
2017-10-16T08:10:20.820Z,83.20
2017-10-16T08:11:23.349Z,83.20
2017-10-16T08:12:26.649Z,83.30
2017-10-16T08:13:29.223Z,83.30
2017-10-16T08:14:31.794Z,83.10
2017-10-16T08:15:34.321Z,83.00
2017-10-16T08:16:37.638Z,83.20
2017-10-16T08:17:40.164Z,83.20
2017-10-16T08:18:42.681Z,83.10
2017-10-16T08:19:45.244Z,82.70
2017-10-16T08:20:47.779Z,82.50
2017-10-16T08:21:51.072Z,82.50
2017-10-16T08:22:53.641Z,82.30
2017-10-16T08:23:56.927Z,82.20
2017-10-16T08:24:59.481Z,82.10
2017-10-16T08:26:02.770Z,82.20
2017-10-16T08:27:06.065Z,82.40
2017-10-16T08:28:09.386Z,81.60
2017-10-16T08:29:11.919Z,81.60
2017-10-16T08:30:14.446Z,81.40
2017-10-16T08:31:16.970Z,81.20
2017-10-16T08:32:19.489Z,80.50
2017-10-16T08:33:22.049Z,80.60
2017-10-16T08:34:24.590Z,80.70
2017-10-16T08:35:27.122Z,80.90
2017-10-16T08:36:29.665Z,80.30
2017-10-16T08:37:33.152Z,80.00
2017-10-16T08:38:36.445Z,80.30
2017-10-16T08:39:39.784Z,79.40
2017-10-16T08:40:42.310Z,79.50
2017-10-16T08:41:44.825Z,79.50
2017-10-16T08:42:47.345Z,79.60
2017-10-16T08:43:49.863Z,79.20
2017-10-16T08:44:52.429Z,79.20
2017-10-16T08:45:54.957Z,79.10
2017-10-16T08:46:57.491Z,79.20
2017-10-16T08:48:00.787Z,78.90
2017-10-16T08:49:03.306Z,79.00
2017-10-16T08:50:05.870Z,78.30
2017-10-16T08:51:08.398Z,78.20
2017-10-16T08:52:10.971Z,78.00
2017-10-16T08:53:13.502Z,78.40
2017-10-16T08:54:16.790Z,78.40
2017-10-16T08:55:19.321Z,78.40
2017-10-16T08:56:21.842Z,77.60
2017-10-16T08:57:24.394Z,77.90
2017-10-16T08:58:26.918Z,77.70
2017-10-16T08:59:29.481Z,77.60
2017-10-16T09:00:32.958Z,77.10
2017-10-16T09:01:35.477Z,76.70
2017-10-16T09:02:38.005Z,76.20
2017-10-16T09:03:40.534Z,76.50
2017-10-16T09:04:43.068Z,77.00
2017-10-16T09:05:46.392Z,76.10
2017-10-16T09:06:48.917Z,76.10
2017-10-16T09:07:52.214Z,76.00
2017-10-16T09:08:54.739Z,76.00
2017-10-16T09:09:57.306Z,75.60
2017-10-16T09:10:59.843Z,76.20
2017-10-16T09:12:02.373Z,75.20
2017-10-16T09:13:04.899Z,74.80
2017-10-16T09:14:07.446Z,74.30
2017-10-16T09:15:10.004Z,73.70
2017-10-16T09:16:12.531Z,72.10
2017-10-16T09:17:15.057Z,69.20
2017-10-16T09:18:17.642Z,66.20
2017-10-16T09:19:20.939Z,63.00
2017-10-16T09:20:24.226Z,60.80
2017-10-16T09:21:26.762Z,60.60
2017-10-16T09:22:29.287Z,59.70
2017-10-16T09:23:31.850Z,57.50
2017-10-16T09:24:34.385Z,56.60
2017-10-16T09:25:37.688Z,56.10
2017-10-16T09:26:40.250Z,55.90
2017-10-16T09:27:42.775Z,54.60
2017-10-16T09:28:45.305Z,53.90
2017-10-16T09:29:47.884Z,53.30
2017-10-16T09:30:50.434Z,52.90
2017-10-16T09:31:52.966Z,52.50
2017-10-16T09:32:56.263Z,51.40
2017-10-16T09:33:58.837Z,51.40
2017-10-16T09:35:01.366Z,51.10
2017-10-16T09:36:03.933Z,51.10
2017-10-16T09:37:06.462Z,51.70
2017-10-16T09:38:08.990Z,50.70
2017-10-16T09:39:11.510Z,50.50
2017-10-16T09:40:14.834Z,50.10
2017-10-16T09:41:18.139Z,50.80
2017-10-16T09:42:20.678Z,50.80
2017-10-16T09:43:23.970Z,50.70
2017-10-16T09:44:27.301Z,51.10
2017-10-16T09:45:29.878Z,51.20
2017-10-16T09:46:32.401Z,51.70
2017-10-16T09:47:34.928Z,52.20
2017-10-16T09:48:37.453Z,50.90
2017-10-16T09:49:40.038Z,51.10
2017-10-16T09:50:42.570Z,50.60
2017-10-16T09:51:45.117Z,50.70
2017-10-16T09:52:48.416Z,49.50
2017-10-16T09:53:50.986Z,49.50
2017-10-16T09:54:53.502Z,50.10
2017-10-16T09:55:56.028Z,50.00
2017-10-16T09:56:58.563Z,50.40
2017-10-16T09:58:01.857Z,51.10
2017-10-16T09:59:04.458Z,51.10
2017-10-16T10:00:07.022Z,50.50
2017-10-16T10:01:09.550Z,51.10
2017-10-16T10:02:12.842Z,50.40
2017-10-16T10:03:15.373Z,50.40
2017-10-16T10:04:17.929Z,50.10
2017-10-16T10:05:20.456Z,49.70
2017-10-16T10:06:22.990Z,49.80
2017-10-16T10:07:26.325Z,50.40
2017-10-16T10:08:28.854Z,50.40
2017-10-16T10:09:31.454Z,51.50
2017-10-16T10:10:33.975Z,50.40
2017-10-16T10:11:37.278Z,50.20
2017-10-16T10:12:39.842Z,50.20
2017-10-16T10:13:42.381Z,49.30
2017-10-16T10:14:45.679Z,50.50
2017-10-16T10:15:48.971Z,50.10
2017-10-16T10:16:51.497Z,50.00
2017-10-16T10:17:54.073Z,48.90
2017-10-16T10:18:56.599Z,49.50
2017-10-16T10:19:59.137Z,50.00
2017-10-16T10:21:01.669Z,49.70
2017-10-16T10:22:04.200Z,49.50
2017-10-16T10:23:06.760Z,48.70
2017-10-16T10:24:09.290Z,48.60
2017-10-16T10:25:12.584Z,48.10
2017-10-16T10:26:15.130Z,48.10
2017-10-16T10:27:18.437Z,48.60
2017-10-16T10:28:20.994Z,48.50
2017-10-16T10:29:24.311Z,48.80
2017-10-16T10:30:26.876Z,48.80
2017-10-16T10:31:29.438Z,49.10
2017-10-16T10:32:31.967Z,49.40
2017-10-16T10:33:35.374Z,49.50
2017-10-16T10:34:37.915Z,49.50
2017-10-16T10:35:41.225Z,49.20
2017-10-16T10:36:43.754Z,49.10
2017-10-16T10:37:47.057Z,49.50
2017-10-16T10:38:50.386Z,50.20
2017-10-16T10:39:52.932Z,50.10
2017-10-16T10:40:55.455Z,50.00
2017-10-16T10:41:57.986Z,50.20
2017-10-16T10:43:00.509Z,49.80
2017-10-16T10:44:03.834Z,50.20
2017-10-16T10:45:06.370Z,50.20
2017-10-16T10:46:08.898Z,50.10
2017-10-16T10:47:11.431Z,49.00
2017-10-16T10:48:13.994Z,48.40
2017-10-16T10:49:16.520Z,48.80
2017-10-16T10:50:19.808Z,49.40
2017-10-16T10:51:23.098Z,49.80
2017-10-16T10:52:25.626Z,49.80
2017-10-16T10:53:28.209Z,50.30
2017-10-16T10:54:31.505Z,50.10
2017-10-16T10:55:34.816Z,50.80
2017-10-16T10:56:37.351Z,50.80
2017-10-16T10:57:40.646Z,50.50
2017-10-16T10:58:43.201Z,50.50
2017-10-16T10:59:46.566Z,51.20
2017-10-16T11:00:49.093Z,51.10
2017-10-16T11:01:51.649Z,51.10
2017-10-16T11:02:54.174Z,52.00
2017-10-16T11:03:56.698Z,51.50
2017-10-16T11:04:59.217Z,52.60
2017-10-16T11:06:02.630Z,53.60
2017-10-16T11:07:05.154Z,53.50
2017-10-16T11:08:08.450Z,53.50
2017-10-16T11:09:11.746Z,52.60
2017-10-16T11:10:14.273Z,52.60
2017-10-16T11:11:16.851Z,52.60
2017-10-16T11:12:19.370Z,54.00
2017-10-16T11:13:21.893Z,54.00
2017-10-16T11:14:25.204Z,54.40
2017-10-16T11:15:27.736Z,54.40
2017-10-16T11:16:31.079Z,53.60
2017-10-16T11:17:33.633Z,53.60
2017-10-16T11:18:36.173Z,54.20
2017-10-16T11:19:39.471Z,53.80
2017-10-16T11:20:42.002Z,53.80
2017-10-16T11:21:45.341Z,53.00
2017-10-16T11:22:47.862Z,53.00
2017-10-16T11:23:51.165Z,53.20
2017-10-16T11:24:53.686Z,53.20
2017-10-16T11:25:56.214Z,53.60
2017-10-16T11:26:58.786Z,51.70
2017-10-16T11:28:01.314Z,52.30
2017-10-16T11:29:03.854Z,51.50
2017-10-16T11:30:06.387Z,51.30
2017-10-16T11:31:08.914Z,50.80
2017-10-16T11:32:12.233Z,48.20
2017-10-16T11:33:14.781Z,48.20
2017-10-16T11:34:17.302Z,48.20
2017-10-16T11:35:19.829Z,47.80
2017-10-16T11:36:22.357Z,47.50
2017-10-16T11:37:25.640Z,48.70
2017-10-16T11:38:28.960Z,49.20
2017-10-16T11:39:31.477Z,49.20
2017-10-16T11:40:34.770Z,49.80
2017-10-16T11:41:38.150Z,49.70
2017-10-16T11:42:41.587Z,50.60
2017-10-16T11:43:44.144Z,50.60
2017-10-16T11:44:46.693Z,50.20
2017-10-16T11:45:49.239Z,49.50
2017-10-16T11:46:51.909Z,48.30
2017-10-16T11:47:55.198Z,47.00
2017-10-16T11:48:58.525Z,46.70
2017-10-16T11:50:01.051Z,46.60
2017-10-16T11:51:04.334Z,45.90
2017-10-16T11:52:07.617Z,45.50
2017-10-16T11:53:10.913Z,46.20
2017-10-16T11:54:14.237Z,46.30
2017-10-16T11:55:16.757Z,46.30
2017-10-16T11:56:20.040Z,47.30
2017-10-16T11:57:23.348Z,46.50
2017-10-16T11:58:25.869Z,46.50
2017-10-16T11:59:28.433Z,45.90
2017-10-16T12:00:30.966Z,45.80
2017-10-16T12:01:33.512Z,45.30
2017-10-16T12:02:36.043Z,45.40
2017-10-16T12:03:39.336Z,44.80
2017-10-16T12:04:42.676Z,44.60
2017-10-16T12:05:45.211Z,44.60
2017-10-16T12:06:47.733Z,44.90
2017-10-16T12:07:50.244Z,45.10
2017-10-16T12:08:52.790Z,45.30
2017-10-16T12:09:56.122Z,45.10
2017-10-16T12:10:58.643Z,45.10
2017-10-16T12:12:01.934Z,45.20
2017-10-16T12:13:04.455Z,45.10
2017-10-16T12:14:06.976Z,45.20
2017-10-16T12:15:09.533Z,45.10
2017-10-16T12:16:12.110Z,45.00
2017-10-16T12:17:14.626Z,46.00
2017-10-16T12:18:17.142Z,46.40
2017-10-16T12:19:19.655Z,46.10
2017-10-16T12:20:22.184Z,46.90
2017-10-16T12:21:24.738Z,46.70
2017-10-16T12:22:27.259Z,47.10
2017-10-16T12:23:29.784Z,47.60
2017-10-16T12:24:32.310Z,46.90
2017-10-16T12:25:35.630Z,46.40
2017-10-16T12:26:38.152Z,46.40
2017-10-16T12:27:41.454Z,46.80
2017-10-16T12:28:44.023Z,46.80
2017-10-16T12:29:46.550Z,46.90
2017-10-16T12:30:49.079Z,46.50
2017-10-16T12:31:51.605Z,46.80
2017-10-16T12:32:54.933Z,46.90
2017-10-16T12:33:57.509Z,46.90
2017-10-16T12:35:00.037Z,46.60
2017-10-16T12:36:02.583Z,46.40
2017-10-16T12:37:05.872Z,46.20
2017-10-16T12:38:09.205Z,46.40
2017-10-16T12:39:11.821Z,46.30
2017-10-16T12:40:14.351Z,46.70
2017-10-16T12:41:16.881Z,46.10
2017-10-16T12:42:19.397Z,44.60
2017-10-16T12:43:21.959Z,44.60
2017-10-16T12:44:24.485Z,45.50
2017-10-16T12:45:27.014Z,44.90
2017-10-16T12:46:30.333Z,45.40
2017-10-16T12:47:32.866Z,45.40
2017-10-16T12:48:36.206Z,45.00
2017-10-16T12:49:38.729Z,45.00
2017-10-16T12:50:42.051Z,44.80
2017-10-16T12:51:44.587Z,44.70
2017-10-16T12:52:47.118Z,44.60
2017-10-16T12:53:50.484Z,45.50
2017-10-16T12:54:53.013Z,44.90
2017-10-16T12:55:55.545Z,44.80
2017-10-16T12:56:58.842Z,44.30
2017-10-16T12:58:02.117Z,44.60
2017-10-16T12:59:05.438Z,44.50
2017-10-16T13:00:07.996Z,44.40
2017-10-16T13:01:10.525Z,44.10
2017-10-16T13:02:13.045Z,44.10
2017-10-16T13:03:15.569Z,44.10
2017-10-16T13:04:18.893Z,43.70
2017-10-16T13:05:27.942Z,43.60
2017-10-16T13:06:30.493Z,43.60
2017-10-16T13:07:33.011Z,43.70
2017-10-16T13:08:36.293Z,43.40
2017-10-16T13:09:39.574Z,43.20
2017-10-16T13:10:42.904Z,43.80
2017-10-16T13:11:45.431Z,43.80
2017-10-16T13:12:47.956Z,43.30
2017-10-16T13:13:50.484Z,44.10
2017-10-16T13:14:53.025Z,45.10
2017-10-16T13:15:55.583Z,42.80
2017-10-16T13:16:58.112Z,42.90
2017-10-16T13:18:00.638Z,43.80
2017-10-16T13:19:03.150Z,44.00
2017-10-16T13:20:05.669Z,44.50
2017-10-16T13:21:08.214Z,44.40
2017-10-16T13:22:11.508Z,44.60
2017-10-16T13:23:14.069Z,44.60
2017-10-16T13:24:17.381Z,43.90
2017-10-16T13:25:19.914Z,43.90
2017-10-16T13:26:23.202Z,44.50
2017-10-16T13:27:26.486Z,44.60
2017-10-16T13:28:29.798Z,44.30